Minneapolis, MN (55401)

7:07 PM CST on February 09, 2016 (GMT -0600)
North Loop | | Change Station
CLOSE
Current Station
Personal Weather Station
Location: Minneapolis, MN
Elevation: 823 ft
Nearby Weather Stations

Elev 823 ft 44.99 °N, 93.28 °W | Updated 18 seconds ago

Clear
Clear
14.2 °F
Feels Like 14 °F
N
0.2
Wind Variable Wind from NNE
Gusts 2.5 mph

Today
High -- | Low -- °F
--% Chance of Precip.
Yesterday
High -- | Low -- °F
Precip. -- in
Pressure 30.20 in
Visibility 10.0 miles
Clouds Clear
Windchill 14 °F
Dew Point -7 °F
Humidity 37%
Rainfall 0.00 in
Snow Depth Not available.
7:23 AM 5:31 PM
Waxing Crescent, 3% visible
METAR KMIC 100053Z 33009KT 10SM CLR M11/M19 A3014 RMK AO2 SLP226 T11061194
Pressure 30.20 in
Visibility 10.0 miles
Clouds Clear
Windchill 14 °F
Dew Point -7 °F
Humidity 37%
Rainfall 0.00 in
Snow Depth Not available.
7:23 AM 5:31 PM
Waxing Crescent, 3% visible
METAR KMIC 100053Z 33009KT 10SM CLR M11/M19 A3014 RMK AO2 SLP226 T11061194

10-Day Weather Forecast

Almanac

Astronomy

Feb. 09, 2016 Rise Set
Actual Time
Civil Twilight
Nautical Twilight
Astronomical Twilight
Moon
Length of Visible Light
Length of Day
Tomorrow will be .
, % of the Moon is Illuminated

Today's Extremes

State Highs State Lows

Community

WunderPhotos

Upload Photos

1,891,752 photos uploaded!

WunderBlog® & News

Nearby

Air Quality

  Air Quality AQ Index Pollutant
Not available.

Snow Depth

Station Depth Elevation

Earthquake Activity

City Distance Mag. Time & Date
Minimum magnitude displayed is 2.5.

Coastal Water Temperatures

Place Temperature

Stations

Nearby Weather Stations

Station Location Temp. Windchill Dew Point Humidity Wind Precip. Elev Updated Type
                   

Watches & Warnings

There are currently no watches in effect.